Aérodrome :
LOGIN :

S'inscrire | Disclaimer

   EN    FR    IT 

 










Légende :    VFR   VFR Marginal   IFR   IFR Intensif   IFR Très Intensif
Visi : 
Plafond : 
>= 8 km
>= 3000ft
5 à 8 km
1000 à 3000 ft
1500m à 5 km
500 à 1000 ft
800 à 1500m
200 à 500 ft
< 800m
< 200 ft
Symboles :   Orages  Brouillard  Fortes neiges  Fortes précipitations  Vent > 20 kt
SIGMETs :   Divers  Orages  Givrage  Turbulence  Onde Orograph.  Cendres Volcan.







- Altitude de l'aérodrome : 400 ft
- Code IATA : BNX


LQBK - Banja Luka

DERNIER METAR :
  • 151200Z 24008KT CAVOK 18/05 Q0999 NOSIG

METARs EXPIRÉS :
  • 151130Z 23008KT CAVOK 18/05 Q1000 NOSIG
  • 151100Z 22009KT CAVOK 18/05 Q1000 NOSIG
  • 151030Z 21007KT CAVOK 18/05 Q1001 NOSIG
  • 151000Z 21010KT CAVOK 18/05 Q1001 NOSIG
  • 150930Z 22011KT 9999 FEW043 17/05 Q1001 NOSIG

TAF TAF LQBK
Valide du 15 à 12h jusqu'au 16 à 12h UTC


151100Z 1512/1612 16006KT 9999 SCT040 TX18/1512Z TN01/1606Z
TEMPO 1515/1521 4000 SHRA FEW030TCU BKN040
TEMPO 1521/1606 32010KT 4000 RA BKN012 OVC030
PROB40
TEMPO 1603/1612 2000 SNRA BKN007 OVC020
Pas de NOTAMs connus pour ce terrain.



MET'MAP, la Météo Aéronautique d'un coup d'oeil ! - Copyright ORBIFLY Décembre 2007 - Disclaimer

ORBIFLY MET'MAP TEAM :

Programmation & Développement : Alexandra Zaïnal
Conception & Développement : Baudouin d'Aumeries
Co-Programmation & Développement : Marc-Olivier Méhu
Soutien technique & logistique : Manuel Goepfert

Contact : metmap@orbifly.com




SOURCES & CREDITS :

   NOAA